Time;durP1;ratioP1;P1;durP2;ratioP2;P2;SDS_P1;SDS_P2;PMS_P1;PMS_P2;Temp;Humidity;BMP_temperature;BMP_pressure;BME280_temperature;BME280_humidity;BME280_pressure;Samples;Min_cycle;Max_cycle;Signal;HPM_P1;HPM_P2
2023/08/24 00:02:07;;;;;;;3.30;2.80;;;26.30;71.30;25.70;96749.00;;;;5009912;28;20630;-82
2023/08/24 00:04:34;;;;;;;3.90;2.93;;;26.20;71.40;25.70;96754.00;;;;5019239;28;20190;-83
2023/08/24 00:07:02;;;;;;;2.83;2.63;;;26.20;71.60;25.60;96756.00;;;;5016791;28;20221;-82
2023/08/24 00:09:29;;;;;;;4.60;3.27;;;26.10;71.80;25.60;96761.00;;;;5029548;28;20194;-82
2023/08/24 00:11:57;;;;;;;3.23;2.80;;;26.10;72.00;25.50;96759.00;;;;5023094;28;20189;-82
2023/08/24 00:14:25;;;;;;;3.00;2.70;;;26.00;72.10;25.50;96749.00;;;;5019318;28;20581;-83
2023/08/24 00:16:52;;;;;;;3.37;3.13;;;26.00;72.00;25.50;96746.00;;;;5027743;28;20217;-83
2023/08/24 00:19:19;;;;;;;2.97;2.77;;;26.00;71.80;25.40;96744.00;;;;5014711;28;20682;-82
2023/08/24 00:21:46;;;;;;;2.97;2.83;;;25.90;71.90;25.40;96744.00;;;;5018500;28;20202;-83
2023/08/24 00:24:13;;;;;;;3.00;2.80;;;25.90;72.10;25.40;96749.00;;;;5021893;28;20659;-83
2023/08/24 00:26:40;;;;;;;3.00;2.80;;;25.80;72.10;25.30;96742.00;;;;5018911;28;20225;-82
2023/08/24 00:29:09;;;;;;;4.50;3.30;;;25.80;71.90;25.30;96745.00;;;;5020952;28;20205;-83
2023/08/24 00:31:36;;;;;;;2.90;2.70;;;25.80;71.90;25.30;96740.00;;;;5026746;28;20634;-83
2023/08/24 00:34:04;;;;;;;3.63;3.33;;;25.80;72.00;25.30;96744.00;;;;5020690;28;20276;-83
2023/08/24 00:36:31;;;;;;;3.23;2.87;;;25.70;72.30;25.20;96743.00;;;;5015383;28;20224;-83
2023/08/24 00:38:58;;;;;;;2.93;2.63;;;25.70;72.40;25.20;96740.00;;;;5017178;28;20202;-83
2023/08/24 00:41:26;;;;;;;2.83;2.63;;;25.70;72.40;25.10;96748.00;;;;5023560;28;20561;-83
2023/08/24 00:43:53;;;;;;;3.20;3.00;;;25.60;72.30;25.10;96746.00;;;;5017319;28;20682;-83
2023/08/24 00:46:23;;;;;;;2.90;2.70;;;25.60;72.20;25.10;96741.00;;;;5021336;28;20225;-83
2023/08/24 00:48:51;;;;;;;3.20;3.00;;;25.60;72.30;25.00;96744.00;;;;5030901;28;20197;-82
2023/08/24 00:51:18;;;;;;;3.13;2.77;;;25.50;72.50;25.00;96750.00;;;;5013025;28;20202;-82
2023/08/24 00:53:47;;;;;;;2.83;2.57;;;25.50;72.60;25.00;96748.00;;;;5019015;28;20238;-82
2023/08/24 00:56:14;;;;;;;3.20;3.00;;;25.50;72.80;25.00;96739.00;;;;5018687;28;20230;-82
2023/08/24 00:58:42;;;;;;;3.20;2.87;;;25.40;72.90;24.90;96733.00;;;;5023887;28;20193;-82
2023/08/24 01:01:09;;;;;;;3.70;3.17;;;25.40;72.80;24.90;96734.00;;;;5021873;28;20192;-82
2023/08/24 01:03:38;;;;;;;3.33;3.03;;;25.40;72.70;24.90;96734.00;;;;5024325;28;20228;-82
2023/08/24 01:06:06;;;;;;;2.97;2.77;;;25.40;72.60;24.80;96743.00;;;;5032810;28;20348;-82
2023/08/24 01:08:34;;;;;;;3.10;2.90;;;25.30;72.70;24.80;96733.00;;;;5026816;28;20194;-82
2023/08/24 01:11:13;;;;;;;3.03;2.83;;;25.30;72.90;24.80;96744.00;;;;5020028;28;20197;-82
2023/08/24 01:13:51;;;;;;;3.50;3.17;;;25.30;72.90;24.70;96741.00;;;;5029282;28;20196;-83
2023/08/24 01:16:26;;;;;;;2.93;2.73;;;25.20;72.90;24.70;96736.00;;;;5018039;28;20308;-83
2023/08/24 01:18:59;;;;;;;2.87;2.60;;;25.20;73.00;24.70;96736.00;;;;5029266;28;20194;-83
2023/08/24 01:21:27;;;;;;;2.93;2.73;;;25.20;73.20;24.60;96745.00;;;;5019391;28;20202;-82
2023/08/24 01:24:10;;;;;;;3.30;3.00;;;25.10;73.30;24.60;96736.00;;;;5027653;28;20202;-82
2023/08/24 01:26:39;;;;;;;3.03;2.83;;;25.10;73.20;24.60;96734.00;;;;5028401;28;20776;-82
2023/08/24 01:29:08;;;;;;;3.40;3.10;;;25.10;73.80;24.60;96740.00;;;;5035243;28;20205;-82
2023/08/24 01:31:35;;;;;;;3.07;2.60;;;25.10;73.30;24.50;96731.00;;;;5016093;28;20194;-83
2023/08/24 01:34:02;;;;;;;5.47;3.17;;;25.10;73.40;24.50;96732.00;;;;5023998;28;20232;-83
2023/08/24 01:36:30;;;;;;;3.00;2.80;;;25.00;73.30;24.50;96722.00;;;;5034441;28;20225;-83
2023/08/24 01:39:07;;;;;;;3.50;3.20;;;25.00;73.40;24.40;96721.00;;;;5027008;28;20680;-83
2023/08/24 01:41:42;;;;;;;3.30;3.07;;;25.00;73.50;24.40;96721.00;;;;5008087;28;20197;-82
2023/08/24 01:44:15;;;;;;;3.47;3.17;;;25.00;73.40;24.40;96728.00;;;;5033180;28;20197;-83
2023/08/24 01:46:45;;;;;;;3.20;2.67;;;24.90;73.30;24.30;96722.00;;;;5026810;28;20213;-83
2023/08/24 01:49:15;;;;;;;3.33;3.03;;;24.90;73.30;24.30;96716.00;;;;5035287;28;20208;-83
2023/08/24 01:51:45;;;;;;;3.03;2.83;;;24.90;73.40;24.30;96720.00;;;;5020415;28;20206;-82
2023/08/24 01:54:13;;;;;;;3.30;3.10;;;24.90;73.60;24.30;96719.00;;;;5022452;28;20208;-82
2023/08/24 01:56:42;;;;;;;3.80;3.50;;;24.80;73.60;24.30;96726.00;;;;5025203;28;20224;-83
2023/08/24 01:59:09;;;;;;;3.77;2.90;;;24.80;73.60;24.20;96733.00;;;;5015051;28;20200;-82
2023/08/24 02:01:36;;;;;;;3.67;3.37;;;24.70;73.60;24.20;96728.00;;;;5025843;28;20291;-82
2023/08/24 02:04:04;;;;;;;3.07;2.90;;;24.70;73.60;24.20;96728.00;;;;5012166;28;20588;-82
2023/08/24 02:06:31;;;;;;;3.33;3.13;;;24.70;73.70;24.20;96721.00;;;;5018564;28;20209;-82
2023/08/24 02:08:59;;;;;;;3.00;2.80;;;24.70;73.80;24.10;96723.00;;;;5002634;28;20259;-82
2023/08/24 02:11:26;;;;;;;3.53;3.23;;;24.70;73.90;24.10;96717.00;;;;5025030;28;20197;-82
2023/08/24 02:13:55;;;;;;;3.40;3.20;;;24.60;74.60;24.10;96711.00;;;;5019848;28;20201;-82
2023/08/24 02:16:22;;;;;;;3.40;3.10;;;24.60;73.70;24.10;96710.00;;;;5017553;28;20313;-82
2023/08/24 02:18:49;;;;;;;3.93;3.23;;;24.60;74.10;24.00;96711.00;;;;5027750;28;20205;-82
2023/08/24 02:21:17;;;;;;;3.53;3.23;;;24.60;74.30;24.00;96712.00;;;;5026632;28;20201;-82
2023/08/24 02:23:44;;;;;;;3.37;3.10;;;24.50;75.00;24.00;96708.00;;;;5021634;28;20210;-82
2023/08/24 02:26:11;;;;;;;3.40;3.20;;;24.50;74.40;24.00;96702.00;;;;5014620;28;20229;-82
2023/08/24 02:28:39;;;;;;;3.33;3.13;;;24.50;74.50;24.00;96703.00;;;;5025557;28;20566;-82
2023/08/24 02:31:07;;;;;;;3.53;2.73;;;24.50;74.50;24.00;96698.00;;;;5016782;28;20213;-82
2023/08/24 02:33:36;;;;;;;3.30;3.10;;;24.40;74.50;23.90;96697.00;;;;5022074;28;20568;-82
2023/08/24 02:36:05;;;;;;;3.30;3.10;;;24.40;74.50;23.90;96696.00;;;;5021589;28;20233;-83
2023/08/24 02:38:32;;;;;;;3.20;3.00;;;24.40;74.50;23.90;96692.00;;;;5022800;28;20746;-82
2023/08/24 02:41:04;;;;;;;3.10;2.90;;;24.40;74.50;23.90;96688.00;;;;5030534;28;20678;-82
2023/08/24 02:43:31;;;;;;;5.20;3.00;;;24.40;74.20;23.90;96692.00;;;;5017745;28;20193;-82
2023/08/24 02:46:03;;;;;;;3.70;3.40;;;24.40;74.40;23.80;96689.00;;;;5025387;28;20231;-82
2023/08/24 02:48:32;;;;;;;3.80;3.50;;;24.40;74.40;23.80;96685.00;;;;5016010;28;20203;-82
2023/08/24 02:51:00;;;;;;;4.37;3.57;;;24.30;74.40;23.80;96691.00;;;;5024260;28;20223;-82
2023/08/24 02:53:28;;;;;;;3.20;2.90;;;24.30;74.50;23.80;96688.00;;;;5029158;28;20911;-82
2023/08/24 02:55:55;;;;;;;3.63;3.33;;;24.30;74.70;23.80;96681.00;;;;5019135;28;20258;-82
2023/08/24 02:58:23;;;;;;;3.57;3.27;;;24.30;74.80;23.80;96688.00;;;;5023908;28;20211;-82
2023/08/24 03:00:50;;;;;;;3.60;3.30;;;24.30;74.80;23.80;96675.00;;;;5024763;28;20292;-82
2023/08/24 03:03:18;;;;;;;3.37;3.17;;;24.30;74.80;23.70;96670.00;;;;5025466;28;20197;-82
2023/08/24 03:05:56;;;;;;;3.20;3.00;;;24.30;74.80;23.70;96678.00;;;;5024341;28;20760;-82
2023/08/24 03:08:25;;;;;;;3.80;3.43;;;24.20;74.70;23.70;96677.00;;;;5025694;28;20210;-82
2023/08/24 03:10:53;;;;;;;3.90;3.37;;;24.20;74.90;23.70;96676.00;;;;5025622;28;20278;-82
2023/08/24 03:13:21;;;;;;;3.83;3.40;;;24.20;74.90;23.70;96679.00;;;;5025774;28;20193;-83
2023/08/24 03:15:48;;;;;;;4.00;3.70;;;24.20;74.80;23.70;96678.00;;;;5018663;28;20225;-83
2023/08/24 03:18:17;;;;;;;3.90;3.60;;;24.20;74.70;23.60;96679.00;;;;5023759;28;20285;-82
2023/08/24 03:20:46;;;;;;;4.07;3.60;;;24.20;74.90;23.60;96683.00;;;;5032406;28;20203;-82
2023/08/24 03:23:16;;;;;;;3.53;3.27;;;24.10;74.80;23.60;96680.00;;;;5025727;28;20192;-82
2023/08/24 03:25:44;;;;;;;3.67;3.37;;;24.10;75.00;23.60;96673.00;;;;5027286;28;20217;-82
2023/08/24 03:28:11;;;;;;;3.23;3.03;;;24.10;75.10;23.60;96687.00;;;;5031195;28;20211;-83
2023/08/24 03:30:48;;;;;;;4.03;3.70;;;24.10;75.10;23.50;96678.00;;;;5024037;28;20192;-82
2023/08/24 03:33:15;;;;;;;4.50;3.40;;;24.10;75.10;23.50;96672.00;;;;5022425;28;20200;-82
2023/08/24 03:35:42;;;;;;;4.10;3.80;;;24.10;75.00;23.50;96666.00;;;;5018560;28;20681;-82
2023/08/24 03:38:09;;;;;;;3.23;3.03;;;24.00;75.10;23.50;96669.00;;;;5023508;28;20678;-82
2023/08/24 03:40:38;;;;;;;3.67;3.47;;;24.00;75.10;23.40;96674.00;;;;5025840;28;20194;-82
2023/08/24 03:43:06;;;;;;;3.77;3.40;;;24.00;75.20;23.40;96664.00;;;;5023401;28;20193;-82
2023/08/24 03:45:33;;;;;;;4.13;3.73;;;24.00;75.30;23.40;96672.00;;;;5011530;28;20225;-82
2023/08/24 03:48:00;;;;;;;3.67;3.37;;;24.00;76.20;23.40;96671.00;;;;5020013;28;20216;-82
2023/08/24 03:50:27;;;;;;;3.70;3.40;;;23.90;76.30;23.40;96667.00;;;;5019908;28;20205;-82
2023/08/24 03:52:55;;;;;;;3.87;3.40;;;23.90;75.60;23.40;96669.00;;;;5019087;28;20287;-82
2023/08/24 03:55:23;;;;;;;3.73;3.43;;;23.90;75.70;23.40;96671.00;;;;5029087;28;20228;-82
2023/08/24 03:57:54;;;;;;;3.87;3.47;;;23.90;75.80;23.40;96669.00;;;;5020065;28;20202;-82
2023/08/24 04:00:21;;;;;;;3.60;3.40;;;23.90;75.80;23.40;96667.00;;;;5024060;28;20198;-82
2023/08/24 04:02:48;;;;;;;3.80;3.50;;;23.90;75.80;23.40;96666.00;;;;5018976;28;20206;-82
2023/08/24 04:05:15;;;;;;;4.13;3.73;;;23.90;75.80;23.40;96667.00;;;;5023098;28;20598;-82
2023/08/24 04:07:42;;;;;;;4.83;3.50;;;23.90;75.80;23.40;96668.00;;;;5018870;28;20207;-82
2023/08/24 04:10:11;;;;;;;3.73;3.43;;;23.90;75.70;23.40;96669.00;;;;5022493;28;20284;-82
2023/08/24 04:12:38;;;;;;;3.77;3.47;;;23.90;75.70;23.40;96661.00;;;;5023568;28;20200;-82
2023/08/24 04:15:09;;;;;;;3.80;3.43;;;23.90;75.80;23.30;96664.00;;;;5032676;28;20642;-82
2023/08/24 04:17:36;;;;;;;4.87;3.30;;;23.90;75.80;23.30;96665.00;;;;5021557;28;20202;-82
2023/08/24 04:20:06;;;;;;;3.50;3.30;;;23.90;75.90;23.30;96666.00;;;;5021428;28;20214;-82
2023/08/24 04:22:33;;;;;;;3.63;3.43;;;23.90;75.80;23.30;96670.00;;;;5023721;28;20198;-82
2023/08/24 04:25:01;;;;;;;3.83;3.53;;;23.90;75.70;23.30;96679.00;;;;5025286;28;20227;-82
2023/08/24 04:27:28;;;;;;;3.10;2.80;;;23.80;75.50;23.30;96668.00;;;;5020990;28;20216;-82
2023/08/24 04:29:55;;;;;;;3.37;3.13;;;23.80;75.50;23.20;96671.00;;;;5021045;28;20667;-82
2023/08/24 04:32:24;;;;;;;3.40;3.20;;;23.80;75.50;23.20;96672.00;;;;5021539;28;20200;-82
2023/08/24 04:34:51;;;;;;;3.60;3.40;;;23.80;75.40;23.20;96679.00;;;;5020908;28;20291;-82
2023/08/24 04:37:19;;;;;;;3.03;2.83;;;23.70;75.60;23.20;96674.00;;;;5021464;28;20226;-82
2023/08/24 04:39:47;;;;;;;3.47;3.27;;;23.70;75.80;23.20;96683.00;;;;5011832;28;20195;-82
2023/08/24 04:42:14;;;;;;;3.53;3.33;;;23.70;75.90;23.10;96686.00;;;;5019223;28;20190;-82
2023/08/24 04:44:42;;;;;;;3.43;3.23;;;23.70;75.90;23.10;96683.00;;;;5017665;28;20204;-82
2023/08/24 04:47:09;;;;;;;3.90;3.60;;;23.70;75.80;23.10;96684.00;;;;5014825;28;20241;-82
2023/08/24 04:49:38;;;;;;;3.27;3.07;;;23.70;75.80;23.10;96688.00;;;;5024996;28;20190;-82
2023/08/24 04:52:06;;;;;;;2.97;2.77;;;23.70;75.80;23.10;96689.00;;;;5023626;28;20557;-82
2023/08/24 04:54:34;;;;;;;4.00;3.70;;;23.70;75.80;23.10;96684.00;;;;5022313;28;20194;-82
2023/08/24 04:57:01;;;;;;;3.80;3.50;;;23.60;75.90;23.10;96690.00;;;;5022325;28;20233;-82
2023/08/24 04:59:28;;;;;;;3.40;3.10;;;23.60;76.10;23.10;96681.00;;;;5020402;28;20194;-82
2023/08/24 05:01:56;;;;;;;3.13;2.93;;;23.60;76.30;23.10;96673.00;;;;5014062;28;20208;-82
2023/08/24 05:04:23;;;;;;;3.33;3.07;;;23.60;76.40;23.10;96683.00;;;;5025678;28;20198;-82
2023/08/24 05:06:52;;;;;;;3.83;3.33;;;23.60;76.50;23.10;96673.00;;;;5034551;28;20317;-82
2023/08/24 05:09:19;;;;;;;3.60;3.30;;;23.60;76.50;23.10;96675.00;;;;5025216;28;20195;-82
2023/08/24 05:11:46;;;;;;;3.50;3.20;;;23.60;76.60;23.10;96680.00;;;;5023916;28;20194;-82
2023/08/24 05:14:14;;;;;;;3.93;3.30;;;23.60;76.70;23.10;96678.00;;;;5024156;28;20194;-81
2023/08/24 05:16:41;;;;;;;3.87;3.53;;;23.60;76.90;23.10;96677.00;;;;5027728;28;20219;-82
2023/08/24 05:19:08;;;;;;;3.53;3.33;;;23.60;76.80;23.10;96674.00;;;;5026199;28;20210;-82
2023/08/24 05:21:35;;;;;;;4.07;3.67;;;23.60;76.90;23.10;96673.00;;;;5022991;28;20195;-82
2023/08/24 05:24:05;;;;;;;4.47;4.00;;;23.60;76.90;23.10;96668.00;;;;5023152;28;20193;-82
2023/08/24 05:26:32;;;;;;;4.70;3.83;;;23.60;77.00;23.10;96663.00;;;;5021106;28;20226;-82
2023/08/24 05:28:59;;;;;;;3.83;3.50;;;23.60;77.20;23.10;96664.00;;;;5027844;28;20208;-82
2023/08/24 05:31:26;;;;;;;3.63;3.33;;;23.60;77.30;23.10;96669.00;;;;5010538;28;20195;-82
2023/08/24 05:33:54;;;;;;;3.70;3.40;;;23.60;77.50;23.10;96671.00;;;;5020576;28;20214;-82
2023/08/24 05:36:21;;;;;;;4.07;3.47;;;23.60;77.60;23.20;96668.00;;;;5025386;28;20229;-82
2023/08/24 05:38:48;;;;;;;3.67;3.37;;;23.60;77.60;23.20;96669.00;;;;5028118;28;20197;-82
2023/08/24 05:41:17;;;;;;;4.30;3.90;;;23.70;77.70;23.20;96664.00;;;;5026844;28;20196;-82
2023/08/24 05:43:44;;;;;;;4.37;3.73;;;23.70;77.90;23.20;96665.00;;;;5033033;28;20204;-81
2023/08/24 05:46:11;;;;;;;4.17;3.77;;;23.70;78.10;23.30;96677.00;;;;5040588;28;20254;-81
2023/08/24 05:48:38;;;;;;;3.93;3.63;;;23.70;78.20;23.30;96673.00;;;;5042024;28;20201;-81
2023/08/24 05:51:08;;;;;;;3.90;3.60;;;23.70;78.30;23.30;96681.00;;;;5031434;28;20202;-82
2023/08/24 05:53:36;;;;;;;4.00;3.70;;;23.80;78.50;23.40;96671.00;;;;5022559;28;20564;-82
2023/08/24 05:56:03;;;;;;;3.83;3.53;;;23.80;78.70;23.40;96681.00;;;;5030390;28;20581;-82
2023/08/24 05:58:31;;;;;;;4.63;4.10;;;23.80;79.50;23.40;96673.00;;;;5026940;28;20281;-82
2023/08/24 06:01:00;;;;;;;4.40;4.10;;;23.90;78.90;23.50;96672.00;;;;5025565;28;20281;-82
2023/08/24 06:03:27;;;;;;;4.50;4.20;;;23.90;78.70;23.50;96665.00;;;;5028149;28;20200;-82
2023/08/24 06:05:54;;;;;;;4.77;4.43;;;23.90;78.80;23.50;96666.00;;;;5035790;28;20221;-82
2023/08/24 06:08:22;;;;;;;4.60;4.30;;;23.90;78.80;23.60;96671.00;;;;5033444;28;20207;-82
2023/08/24 06:10:50;;;;;;;5.67;5.07;;;24.00;79.00;23.60;96669.00;;;;5022544;28;20205;-82
2023/08/24 06:13:17;;;;;;;4.93;4.53;;;24.00;79.70;23.60;96673.00;;;;5017958;28;20204;-82
2023/08/24 06:15:46;;;;;;;4.67;4.37;;;24.00;79.10;23.70;96679.00;;;;5021900;28;20231;-82
2023/08/24 06:18:13;;;;;;;4.83;4.47;;;24.10;79.00;23.70;96673.00;;;;5027657;28;20247;-82
2023/08/24 06:20:40;;;;;;;5.10;4.80;;;24.10;79.00;23.80;96678.00;;;;5031968;28;20190;-82
2023/08/24 06:23:08;;;;;;;5.03;4.53;;;24.20;78.80;23.80;96678.00;;;;5025496;28;20201;-82
2023/08/24 06:25:36;;;;;;;4.77;4.40;;;24.20;78.50;23.90;96672.00;;;;5031024;28;20898;-82
2023/08/24 06:28:04;;;;;;;5.23;4.67;;;24.20;78.60;23.90;96670.00;;;;5024436;28;20206;-82
2023/08/24 06:30:36;;;;;;;4.60;4.20;;;24.30;78.80;24.00;96666.00;;;;5014273;28;20201;-82
2023/08/24 06:33:06;;;;;;;4.60;4.30;;;24.30;79.00;24.00;96674.00;;;;5030784;28;20198;-82
2023/08/24 06:35:34;;;;;;;4.03;3.70;;;24.40;78.90;24.10;96672.00;;;;5014212;28;20217;-82
2023/08/24 06:38:01;;;;;;;4.30;4.00;;;24.40;79.10;24.10;96669.00;;;;4997692;28;20221;-82
2023/08/24 06:40:29;;;;;;;9.73;5.13;;;24.50;79.10;24.20;96672.00;;;;5021927;28;20735;-82
2023/08/24 06:42:57;;;;;;;5.17;4.77;;;24.50;79.10;24.20;96669.00;;;;5021243;28;20617;-83
2023/08/24 06:45:24;;;;;;;5.23;4.13;;;24.60;79.10;24.30;96673.00;;;;5024930;28;20229;-83
2023/08/24 06:47:52;;;;;;;3.97;3.77;;;24.60;79.00;24.40;96667.00;;;;5020185;28;20220;-83
2023/08/24 06:50:21;;;;;;;4.37;3.73;;;24.70;78.80;24.40;96658.00;;;;5026791;28;20214;-82
2023/08/24 06:52:48;;;;;;;4.60;4.20;;;24.80;78.70;24.50;96669.00;;;;5027594;28;20208;-82
2023/08/24 06:55:16;;;;;;;5.00;4.27;;;24.80;78.80;24.60;96661.00;;;;5026930;28;20229;-82
2023/08/24 06:57:43;;;;;;;4.30;3.90;;;24.90;78.80;24.60;96665.00;;;;5006046;28;20594;-82
2023/08/24 07:00:14;;;;;;;4.90;3.80;;;24.90;78.70;24.70;96665.00;;;;5025634;28;20197;-81
2023/08/24 07:02:41;;;;;;;6.03;3.70;;;25.00;78.50;24.80;96661.00;;;;5024050;28;20206;-81
2023/08/24 07:05:09;;;;;;;4.10;3.50;;;25.10;78.60;24.90;96652.00;;;;5024372;28;20770;-82
2023/08/24 07:07:38;;;;;;;3.80;3.50;;;25.10;78.90;25.00;96646.00;;;;5016153;28;20237;-83
2023/08/24 07:10:07;;;;;;;3.47;3.20;;;25.20;78.10;25.00;96646.00;;;;5034066;28;20292;-82
2023/08/24 07:12:34;;;;;;;3.53;3.23;;;25.30;78.00;25.10;96635.00;;;;5026153;28;20201;-82
2023/08/24 07:15:02;;;;;;;3.33;3.03;;;25.40;78.10;25.20;96635.00;;;;5027886;28;20229;-82
2023/08/24 07:17:29;;;;;;;3.50;2.90;;;25.40;77.60;25.30;96632.00;;;;5025324;28;20217;-82
2023/08/24 07:19:56;;;;;;;6.27;3.20;;;25.50;77.70;25.40;96639.00;;;;5032337;28;20270;-81
2023/08/24 07:22:26;;;;;;;2.93;2.73;;;25.60;77.40;25.50;96630.00;;;;5030882;28;20261;-82
2023/08/24 07:24:55;;;;;;;3.30;3.10;;;25.70;77.30;25.60;96642.00;;;;5025330;28;20233;-82
2023/08/24 07:27:22;;;;;;;4.03;2.97;;;25.80;77.20;25.80;96638.00;;;;5026855;28;20217;-81
2023/08/24 07:29:49;;;;;;;2.80;2.60;;;26.00;77.60;25.90;96637.00;;;;5023142;28;20208;-82
2023/08/24 07:32:17;;;;;;;3.20;2.90;;;26.00;76.80;26.00;96632.00;;;;5021785;28;20198;-82
2023/08/24 07:34:44;;;;;;;2.57;2.37;;;26.20;76.50;26.10;96632.00;;;;5018699;28;20806;-82
2023/08/24 07:37:11;;;;;;;2.83;2.63;;;26.30;76.40;26.20;96631.00;;;;5023797;28;20593;-82
2023/08/24 07:39:39;;;;;;;3.10;2.90;;;26.40;76.50;26.30;96637.00;;;;5024175;28;20281;-81
2023/08/24 07:42:08;;;;;;;4.13;2.67;;;26.50;75.80;26.40;96635.00;;;;5034022;28;20578;-82
2023/08/24 07:44:36;;;;;;;2.70;2.50;;;26.60;75.90;26.50;96633.00;;;;5024221;28;20279;-82
2023/08/24 07:47:04;;;;;;;2.63;2.50;;;26.70;75.80;26.60;96630.00;;;;5021079;28;20216;-81
2023/08/24 07:49:32;;;;;;;6.63;3.10;;;26.80;75.50;26.70;96636.00;;;;5025057;28;20205;-82
2023/08/24 07:51:59;;;;;;;2.60;2.43;;;26.90;74.80;26.90;96631.00;;;;5028289;28;20686;-81
2023/08/24 07:54:27;;;;;;;2.70;2.50;;;27.00;74.70;27.00;96637.00;;;;5017793;28;20641;-81
2023/08/24 07:56:54;;;;;;;2.43;2.23;;;27.10;74.80;27.10;96639.00;;;;5021200;28;20221;-81
2023/08/24 07:59:22;;;;;;;3.63;2.50;;;27.20;74.60;27.20;96631.00;;;;5031599;28;20197;-81
2023/08/24 08:01:50;;;;;;;2.67;2.40;;;27.30;73.70;27.30;96640.00;;;;5035602;28;20201;-81
2023/08/24 08:04:17;;;;;;;2.28;2.17;;;27.40;74.00;27.40;96638.00;;;;5028605;28;20204;-81
2023/08/24 08:06:45;;;;;;;3.03;2.65;;;27.60;74.50;27.50;96639.00;;;;5018438;28;20761;-81
2023/08/24 08:09:12;;;;;;;2.55;2.35;;;27.70;74.00;27.60;96635.00;;;;5034706;28;20749;-81
2023/08/24 08:11:39;;;;;;;2.33;2.13;;;27.70;73.20;27.70;96633.00;;;;5034371;28;20691;-81
2023/08/24 08:14:07;;;;;;;2.55;2.35;;;27.90;72.90;27.80;96639.00;;;;5024345;28;20205;-81
2023/08/24 08:16:36;;;;;;;2.33;2.13;;;28.00;72.80;27.90;96630.00;;;;5032919;28;20217;-82
2023/08/24 08:19:03;;;;;;;3.40;2.33;;;28.10;72.20;28.00;96634.00;;;;5022372;28;20567;-81
2023/08/24 08:21:30;;;;;;;2.70;2.20;;;28.20;72.10;28.20;96630.00;;;;5028742;28;20214;-85
2023/08/24 08:23:58;;;;;;;2.38;2.17;;;28.30;71.70;28.20;96632.00;;;;5027725;28;20194;-81
2023/08/24 08:26:25;;;;;;;2.67;2.20;;;28.40;71.60;28.40;96627.00;;;;5016963;28;20320;-82
2023/08/24 08:28:52;;;;;;;2.85;2.65;;;28.50;71.30;28.50;96633.00;;;;5024022;28;20197;-82
2023/08/24 08:31:19;;;;;;;3.25;2.40;;;28.60;71.50;28.60;96627.00;;;;5020986;28;20561;-83
2023/08/24 08:33:48;;;;;;;2.40;2.20;;;28.70;71.40;28.70;96625.00;;;;5019591;28;20194;-84
2023/08/24 08:36:16;;;;;;;3.55;2.38;;;28.80;71.00;28.80;96633.00;;;;5028997;28;20312;-84
2023/08/24 08:38:43;;;;;;;2.47;2.28;;;29.00;71.80;29.00;96633.00;;;;5032109;28;20228;-85
2023/08/24 08:41:10;;;;;;;2.50;2.30;;;29.10;71.10;29.10;96634.00;;;;5022816;28;20230;-84
2023/08/24 08:43:40;;;;;;;2.95;2.65;;;29.20;70.80;29.20;96644.00;;;;5018513;28;20256;-84
2023/08/24 08:46:07;;;;;;;2.50;2.30;;;29.30;70.20;29.30;96633.00;;;;5012896;28;20603;-84
2023/08/24 08:48:37;;;;;;;3.67;2.63;;;29.40;70.40;29.50;96633.00;;;;5024719;28;20201;-84
2023/08/24 08:51:06;;;;;;;2.63;2.45;;;29.50;70.40;29.60;96627.00;;;;5015581;28;20198;-83
2023/08/24 08:53:34;;;;;;;2.53;2.33;;;29.60;70.20;29.70;96629.00;;;;5015351;28;20642;-84
2023/08/24 08:56:04;;;;;;;2.60;2.10;;;29.70;70.00;29.80;96628.00;;;;5025320;28;20217;-84
2023/08/24 08:58:35;;;;;;;2.47;2.38;;;29.90;70.50;30.00;96631.00;;;;5021170;28;20682;-84
2023/08/24 09:01:05;;;;;;;2.15;2.03;;;30.00;69.20;30.10;96631.00;;;;5012763;28;20208;-84
2023/08/24 09:03:33;;;;;;;4.13;2.35;;;30.20;69.40;30.20;96631.00;;;;5011577;28;20272;-83
2023/08/24 09:06:00;;;;;;;2.50;2.30;;;30.30;69.00;30.40;96631.00;;;;5020740;28;20225;-84
2023/08/24 09:08:30;;;;;;;4.38;2.70;;;30.40;68.70;30.50;96632.00;;;;5023979;28;20641;-86
2023/08/24 09:10:59;;;;;;;2.50;2.30;;;30.50;68.30;30.60;96636.00;;;;5025035;28;20492;-84
2023/08/24 09:13:27;;;;;;;2.58;2.47;;;30.60;68.00;30.80;96635.00;;;;5018141;28;20194;-84
2023/08/24 09:15:54;;;;;;;2.50;2.30;;;30.80;67.60;30.90;96632.00;;;;5020777;28;20217;-84
2023/08/24 09:18:22;;;;;;;2.65;2.45;;;30.90;67.70;31.00;96624.00;;;;5005778;28;20589;-84
2023/08/24 09:20:49;;;;;;;2.58;2.38;;;31.00;66.90;31.10;96616.00;;;;5022575;28;20279;-85
2023/08/24 09:23:20;;;;;;;2.40;2.20;;;31.10;66.00;31.30;96611.00;;;;5019845;28;20201;-85
2023/08/24 09:25:49;;;;;;;6.55;2.25;;;31.30;65.50;31.40;96595.00;;;;5026508;28;20232;-85
2023/08/24 09:28:25;;;;;;;2.72;2.10;;;31.40;65.40;31.60;96594.00;;;;5026873;28;20213;-84
2023/08/24 09:30:55;;;;;;;3.00;2.70;;;31.60;64.30;31.70;96591.00;;;;5023054;28;20247;-84
2023/08/24 09:33:25;;;;;;;2.75;2.55;;;31.70;64.60;31.80;96587.00;;;;5026615;28;20193;-85
2023/08/24 09:36:00;;;;;;;2.60;2.40;;;31.80;64.80;32.00;96580.00;;;;5026128;28;20222;-85
2023/08/24 09:38:28;;;;;;;3.00;2.40;;;31.90;64.60;32.10;96572.00;;;;5025212;28;20307;-84
2023/08/24 09:40:58;;;;;;;3.05;2.47;;;32.10;64.80;32.20;96581.00;;;;5020996;28;20576;-84
2023/08/24 09:43:25;;;;;;;2.30;2.00;;;31.60;63.40;32.30;96576.00;;;;5027037;28;20232;-84
2023/08/24 09:45:54;;;;;;;3.78;2.72;;;32.30;64.00;32.40;96572.00;;;;5025107;28;20237;-85
2023/08/24 09:48:22;;;;;;;3.67;2.25;;;32.40;63.30;32.60;96570.00;;;;5026073;28;20209;-85
2023/08/24 09:50:52;;;;;;;2.28;2.08;;;32.50;63.00;32.70;96576.00;;;;5025125;28;20201;-85
2023/08/24 09:53:21;;;;;;;2.58;2.13;;;32.70;62.60;32.80;96575.00;;;;5015830;28;20685;-84
2023/08/24 09:55:55;;;;;;;2.67;2.47;;;32.80;62.70;32.90;96572.00;;;;5035123;28;20603;-86
2023/08/24 09:58:26;;;;;;;2.20;2.00;;;32.90;61.10;33.00;96565.00;;;;5026942;28;20232;-84
2023/08/24 10:00:56;;;;;;;6.07;2.15;;;33.00;61.10;33.10;96552.00;;;;5020151;28;20205;-84
2023/08/24 10:03:26;;;;;;;2.70;2.50;;;33.10;61.40;33.30;96554.00;;;;5033446;28;20204;-85
2023/08/24 10:05:58;;;;;;;2.50;2.30;;;33.20;61.20;33.40;96549.00;;;;5032498;28;20268;-84
2023/08/24 10:08:39;;;;;;;2.55;2.10;;;33.30;61.50;33.40;96540.00;;;;5019160;28;20201;-84
2023/08/24 10:11:10;;;;;;;2.20;2.10;;;33.40;60.20;33.50;96548.00;;;;5022140;28;20279;-84
2023/08/24 10:13:49;;;;;;;2.20;2.10;;;33.50;60.90;33.60;96549.00;;;;5023789;28;20194;-85
2023/08/24 10:16:19;;;;;;;2.85;1.90;;;33.60;60.20;33.70;96538.00;;;;5018614;28;20710;-84
2023/08/24 10:18:48;;;;;;;2.28;2.17;;;33.70;61.10;33.80;96541.00;;;;5012127;28;20221;-84
2023/08/24 10:21:16;;;;;;;4.53;2.78;;;33.80;60.90;33.90;96535.00;;;;5012895;28;20683;-84
2023/08/24 10:23:47;;;;;;;2.42;2.15;;;33.80;60.10;34.00;96536.00;;;;5018299;28;20644;-84
2023/08/24 10:26:17;;;;;;;2.42;2.33;;;33.90;59.90;34.00;96530.00;;;;5022286;28;20218;-85
2023/08/24 10:28:47;;;;;;;2.55;2.25;;;34.00;60.30;34.10;96538.00;;;;5027170;28;20284;-84
2023/08/24 10:31:15;;;;;;;2.72;2.28;;;34.10;60.10;34.20;96541.00;;;;5005906;28;20194;-84
2023/08/24 10:33:44;;;;;;;2.40;2.20;;;34.20;59.90;34.30;96546.00;;;;5028382;28;20198;-84
2023/08/24 10:36:13;;;;;;;2.33;2.13;;;34.30;60.00;34.40;96540.00;;;;5022364;28;20656;-84
2023/08/24 10:38:43;;;;;;;3.17;2.33;;;34.40;60.00;34.40;96535.00;;;;5029532;28;20214;-85
2023/08/24 10:41:12;;;;;;;3.72;2.30;;;34.40;59.10;34.50;96524.00;;;;5024343;28;20197;-84
2023/08/24 10:43:41;;;;;;;3.13;2.40;;;34.50;59.60;34.60;96526.00;;;;5020178;28;20193;-84
2023/08/24 10:46:16;;;;;;;2.80;2.60;;;34.60;59.10;34.60;96517.00;;;;5005253;28;20217;-84
2023/08/24 10:48:59;;;;;;;2.70;2.40;;;34.60;58.80;34.70;96532.00;;;;5022433;28;20236;-84
2023/08/24 10:51:27;;;;;;;2.40;2.30;;;34.70;58.10;34.70;96523.00;;;;5031136;28;20197;-84
2023/08/24 10:53:57;;;;;;;2.60;2.40;;;34.80;59.40;34.80;96516.00;;;;5020719;28;20248;-84
2023/08/24 10:56:35;;;;;;;2.63;2.42;;;34.80;58.80;34.80;96510.00;;;;5022889;28;20308;-84
2023/08/24 10:59:14;;;;;;;2.65;2.47;;;34.80;58.30;34.80;96505.00;;;;5022426;28;20217;-84
2023/08/24 11:01:43;;;;;;;2.60;2.50;;;34.90;57.60;34.80;96498.00;;;;5014053;28;20655;-84